sensor_id;sensor_type;location;lat;lon;timestamp;P1;durP1;ratioP1;P2;durP2;ratioP2
53835;SDS011;39737;43.334;21.936;2024-03-29T00:01:42;3.13;;;1.23;;
53835;SDS011;39737;43.334;21.936;2024-03-29T00:04:28;3.75;;;1.65;;
53835;SDS011;39737;43.334;21.936;2024-03-29T00:07:13;3.40;;;1.73;;
53835;SDS011;39737;43.334;21.936;2024-03-29T00:09:58;1.10;;;0.70;;
53835;SDS011;39737;43.334;21.936;2024-03-29T00:12:43;18.05;;;1.58;;
53835;SDS011;39737;43.334;21.936;2024-03-29T00:15:28;3.50;;;1.27;;
53835;SDS011;39737;43.334;21.936;2024-03-29T00:18:14;1.73;;;1.40;;
53835;SDS011;39737;43.334;21.936;2024-03-29T00:20:59;3.30;;;0.98;;
53835;SDS011;39737;43.334;21.936;2024-03-29T00:23:44;2.13;;;1.92;;
53835;SDS011;39737;43.334;21.936;2024-03-29T00:26:29;1.98;;;1.65;;
53835;SDS011;39737;43.334;21.936;2024-03-29T00:29:14;1.55;;;1.20;;
53835;SDS011;39737;43.334;21.936;2024-03-29T00:31:59;6.03;;;1.92;;
53835;SDS011;39737;43.334;21.936;2024-03-29T00:34:44;1.05;;;0.93;;
53835;SDS011;39737;43.334;21.936;2024-03-29T00:37:30;2.03;;;1.60;;
53835;SDS011;39737;43.334;21.936;2024-03-29T00:40:15;2.75;;;1.27;;
53835;SDS011;39737;43.334;21.936;2024-03-29T00:43:01;2.47;;;1.08;;
53835;SDS011;39737;43.334;21.936;2024-03-29T00:45:45;1.85;;;0.95;;
53835;SDS011;39737;43.334;21.936;2024-03-29T00:48:30;2.90;;;1.45;;
53835;SDS011;39737;43.334;21.936;2024-03-29T00:51:15;3.75;;;1.50;;
53835;SDS011;39737;43.334;21.936;2024-03-29T00:54:00;0.30;;;0.30;;
53835;SDS011;39737;43.334;21.936;2024-03-29T00:56:46;1.10;;;1.00;;
53835;SDS011;39737;43.334;21.936;2024-03-29T00:59:31;5.25;;;1.20;;
53835;SDS011;39737;43.334;21.936;2024-03-29T01:02:16;3.55;;;1.45;;
53835;SDS011;39737;43.334;21.936;2024-03-29T01:05:01;4.03;;;1.45;;
53835;SDS011;39737;43.334;21.936;2024-03-29T01:07:46;2.92;;;1.42;;
53835;SDS011;39737;43.334;21.936;2024-03-29T01:10:31;2.25;;;1.00;;
53835;SDS011;39737;43.334;21.936;2024-03-29T01:13:16;3.47;;;1.17;;
53835;SDS011;39737;43.334;21.936;2024-03-29T01:16:00;4.43;;;1.17;;
53835;SDS011;39737;43.334;21.936;2024-03-29T01:18:45;1.00;;;0.55;;
53835;SDS011;39737;43.334;21.936;2024-03-29T01:21:31;4.57;;;1.10;;
53835;SDS011;39737;43.334;21.936;2024-03-29T01:24:16;2.47;;;1.17;;
53835;SDS011;39737;43.334;21.936;2024-03-29T01:27:03;5.80;;;1.42;;
53835;SDS011;39737;43.334;21.936;2024-03-29T01:29:51;1.17;;;0.68;;
53835;SDS011;39737;43.334;21.936;2024-03-29T01:32:35;5.45;;;1.70;;
53835;SDS011;39737;43.334;21.936;2024-03-29T01:35:20;14.15;;;0.85;;
53835;SDS011;39737;43.334;21.936;2024-03-29T01:38:05;2.05;;;0.60;;
53835;SDS011;39737;43.334;21.936;2024-03-29T01:40:50;0.60;;;0.60;;
53835;SDS011;39737;43.334;21.936;2024-03-29T01:43:35;1.90;;;1.15;;
53835;SDS011;39737;43.334;21.936;2024-03-29T01:46:21;7.07;;;0.77;;
53835;SDS011;39737;43.334;21.936;2024-03-29T01:49:06;2.60;;;0.93;;
53835;SDS011;39737;43.334;21.936;2024-03-29T01:51:52;3.78;;;1.83;;
53835;SDS011;39737;43.334;21.936;2024-03-29T01:54:36;0.60;;;0.60;;
53835;SDS011;39737;43.334;21.936;2024-03-29T01:57:21;4.07;;;1.33;;
53835;SDS011;39737;43.334;21.936;2024-03-29T02:00:07;5.25;;;1.52;;
53835;SDS011;39737;43.334;21.936;2024-03-29T02:02:52;2.20;;;1.15;;
53835;SDS011;39737;43.334;21.936;2024-03-29T02:05:39;2.17;;;1.30;;
53835;SDS011;39737;43.334;21.936;2024-03-29T02:08:43;0.63;;;0.63;;
53835;SDS011;39737;43.334;21.936;2024-03-29T02:11:28;1.83;;;1.48;;
53835;SDS011;39737;43.334;21.936;2024-03-29T02:14:13;0.70;;;0.70;;
53835;SDS011;39737;43.334;21.936;2024-03-29T02:16:58;4.68;;;1.75;;
53835;SDS011;39737;43.334;21.936;2024-03-29T02:20:06;4.07;;;1.38;;
53835;SDS011;39737;43.334;21.936;2024-03-29T02:23:00;3.83;;;1.33;;
53835;SDS011;39737;43.334;21.936;2024-03-29T02:25:47;0.68;;;0.60;;
53835;SDS011;39737;43.334;21.936;2024-03-29T02:28:32;0.60;;;0.60;;
53835;SDS011;39737;43.334;21.936;2024-03-29T02:31:16;3.10;;;1.05;;
53835;SDS011;39737;43.334;21.936;2024-03-29T02:34:02;0.63;;;0.63;;
53835;SDS011;39737;43.334;21.936;2024-03-29T02:36:48;3.95;;;0.85;;
53835;SDS011;39737;43.334;21.936;2024-03-29T02:39:33;2.63;;;0.85;;
53835;SDS011;39737;43.334;21.936;2024-03-29T02:42:18;3.13;;;2.10;;
53835;SDS011;39737;43.334;21.936;2024-03-29T02:45:03;0.65;;;0.65;;
53835;SDS011;39737;43.334;21.936;2024-03-29T02:47:49;3.20;;;1.35;;
53835;SDS011;39737;43.334;21.936;2024-03-29T02:50:33;1.02;;;0.75;;
53835;SDS011;39737;43.334;21.936;2024-03-29T02:53:18;3.50;;;0.98;;
53835;SDS011;39737;43.334;21.936;2024-03-29T02:56:04;0.90;;;0.90;;
53835;SDS011;39737;43.334;21.936;2024-03-29T02:58:49;0.50;;;0.50;;
53835;SDS011;39737;43.334;21.936;2024-03-29T03:01:34;1.08;;;0.93;;
53835;SDS011;39737;43.334;21.936;2024-03-29T03:04:19;7.88;;;2.35;;
53835;SDS011;39737;43.334;21.936;2024-03-29T03:07:04;3.13;;;1.67;;
53835;SDS011;39737;43.334;21.936;2024-03-29T03:10:08;7.57;;;2.47;;
53835;SDS011;39737;43.334;21.936;2024-03-29T03:13:11;0.70;;;0.70;;
53835;SDS011;39737;43.334;21.936;2024-03-29T03:15:56;1.95;;;0.80;;
53835;SDS011;39737;43.334;21.936;2024-03-29T03:18:42;3.55;;;1.15;;
53835;SDS011;39737;43.334;21.936;2024-03-29T03:21:26;2.75;;;1.38;;
53835;SDS011;39737;43.334;21.936;2024-03-29T03:24:11;2.95;;;1.67;;
53835;SDS011;39737;43.334;21.936;2024-03-29T03:26:56;5.97;;;2.15;;
53835;SDS011;39737;43.334;21.936;2024-03-29T03:29:41;1.55;;;0.98;;
53835;SDS011;39737;43.334;21.936;2024-03-29T03:32:26;1.80;;;1.63;;
53835;SDS011;39737;43.334;21.936;2024-03-29T03:35:11;1.45;;;1.05;;
53835;SDS011;39737;43.334;21.936;2024-03-29T03:37:56;2.10;;;1.30;;
53835;SDS011;39737;43.334;21.936;2024-03-29T03:40:41;2.22;;;1.83;;
53835;SDS011;39737;43.334;21.936;2024-03-29T03:43:26;2.75;;;1.85;;
53835;SDS011;39737;43.334;21.936;2024-03-29T03:46:12;2.90;;;2.25;;
53835;SDS011;39737;43.334;21.936;2024-03-29T03:48:57;5.65;;;2.25;;
53835;SDS011;39737;43.334;21.936;2024-03-29T03:51:42;2.67;;;1.17;;
53835;SDS011;39737;43.334;21.936;2024-03-29T03:54:27;1.55;;;1.35;;
53835;SDS011;39737;43.334;21.936;2024-03-29T03:57:12;1.10;;;0.85;;
53835;SDS011;39737;43.334;21.936;2024-03-29T03:59:57;1.27;;;1.17;;
53835;SDS011;39737;43.334;21.936;2024-03-29T04:02:46;1.85;;;0.85;;
53835;SDS011;39737;43.334;21.936;2024-03-29T04:05:31;3.67;;;1.17;;
53835;SDS011;39737;43.334;21.936;2024-03-29T04:08:16;1.85;;;0.90;;
53835;SDS011;39737;43.334;21.936;2024-03-29T04:11:04;2.78;;;1.27;;
53835;SDS011;39737;43.334;21.936;2024-03-29T04:13:49;0.90;;;0.73;;
53835;SDS011;39737;43.334;21.936;2024-03-29T04:16:53;0.82;;;0.82;;
53835;SDS011;39737;43.334;21.936;2024-03-29T04:19:37;0.85;;;0.60;;
53835;SDS011;39737;43.334;21.936;2024-03-29T04:22:22;3.40;;;0.98;;
53835;SDS011;39737;43.334;21.936;2024-03-29T04:25:08;2.90;;;1.25;;
53835;SDS011;39737;43.334;21.936;2024-03-29T04:27:52;0.93;;;0.85;;
53835;SDS011;39737;43.334;21.936;2024-03-29T04:30:37;3.30;;;1.25;;
53835;SDS011;39737;43.334;21.936;2024-03-29T04:33:22;1.42;;;1.20;;
53835;SDS011;39737;43.334;21.936;2024-03-29T04:36:08;2.45;;;0.95;;
53835;SDS011;39737;43.334;21.936;2024-03-29T04:38:53;0.57;;;0.57;;
53835;SDS011;39737;43.334;21.936;2024-03-29T04:41:58;0.98;;;0.95;;
53835;SDS011;39737;43.334;21.936;2024-03-29T04:44:43;7.03;;;3.22;;
53835;SDS011;39737;43.334;21.936;2024-03-29T04:47:28;6.38;;;3.13;;
53835;SDS011;39737;43.334;21.936;2024-03-29T04:50:13;1.33;;;1.13;;
53835;SDS011;39737;43.334;21.936;2024-03-29T04:52:58;1.58;;;1.05;;
53835;SDS011;39737;43.334;21.936;2024-03-29T04:55:43;9.00;;;2.13;;
53835;SDS011;39737;43.334;21.936;2024-03-29T04:58:30;4.75;;;1.20;;
53835;SDS011;39737;43.334;21.936;2024-03-29T05:01:15;5.88;;;1.75;;
53835;SDS011;39737;43.334;21.936;2024-03-29T05:04:01;6.38;;;2.92;;
53835;SDS011;39737;43.334;21.936;2024-03-29T05:06:46;8.70;;;2.58;;
53835;SDS011;39737;43.334;21.936;2024-03-29T05:09:31;12.55;;;3.53;;
53835;SDS011;39737;43.334;21.936;2024-03-29T05:12:16;5.05;;;3.70;;
53835;SDS011;39737;43.334;21.936;2024-03-29T05:15:19;8.15;;;2.65;;
53835;SDS011;39737;43.334;21.936;2024-03-29T05:18:04;1.48;;;1.38;;
53835;SDS011;39737;43.334;21.936;2024-03-29T05:20:52;4.93;;;3.80;;
53835;SDS011;39737;43.334;21.936;2024-03-29T05:23:38;2.55;;;2.20;;
53835;SDS011;39737;43.334;21.936;2024-03-29T05:26:23;8.75;;;3.38;;
53835;SDS011;39737;43.334;21.936;2024-03-29T05:29:09;9.40;;;5.85;;
53835;SDS011;39737;43.334;21.936;2024-03-29T05:31:53;4.72;;;4.25;;
53835;SDS011;39737;43.334;21.936;2024-03-29T05:34:39;7.45;;;5.78;;
53835;SDS011;39737;43.334;21.936;2024-03-29T05:37:23;9.40;;;3.55;;
53835;SDS011;39737;43.334;21.936;2024-03-29T05:40:12;9.73;;;4.45;;
53835;SDS011;39737;43.334;21.936;2024-03-29T05:43:15;2.85;;;2.55;;
53835;SDS011;39737;43.334;21.936;2024-03-29T05:46:01;17.52;;;7.75;;
53835;SDS011;39737;43.334;21.936;2024-03-29T05:48:46;10.38;;;4.63;;
53835;SDS011;39737;43.334;21.936;2024-03-29T05:51:31;8.25;;;4.68;;
53835;SDS011;39737;43.334;21.936;2024-03-29T05:54:16;14.75;;;5.40;;
53835;SDS011;39737;43.334;21.936;2024-03-29T05:57:01;9.27;;;3.95;;
53835;SDS011;39737;43.334;21.936;2024-03-29T05:59:46;26.20;;;11.50;;
53835;SDS011;39737;43.334;21.936;2024-03-29T06:02:31;17.30;;;8.30;;
53835;SDS011;39737;43.334;21.936;2024-03-29T06:05:16;27.80;;;12.25;;
53835;SDS011;39737;43.334;21.936;2024-03-29T06:08:02;30.92;;;10.90;;
53835;SDS011;39737;43.334;21.936;2024-03-29T06:10:47;14.25;;;5.10;;
53835;SDS011;39737;43.334;21.936;2024-03-29T06:13:32;12.88;;;4.65;;
53835;SDS011;39737;43.334;21.936;2024-03-29T06:16:36;12.80;;;4.15;;
53835;SDS011;39737;43.334;21.936;2024-03-29T06:19:39;17.48;;;5.78;;
53835;SDS011;39737;43.334;21.936;2024-03-29T06:22:26;65.25;;;25.70;;
53835;SDS011;39737;43.334;21.936;2024-03-29T06:25:15;28.70;;;14.00;;
53835;SDS011;39737;43.334;21.936;2024-03-29T06:28:00;26.05;;;12.80;;
53835;SDS011;39737;43.334;21.936;2024-03-29T06:30:45;8.98;;;4.07;;
53835;SDS011;39737;43.334;21.936;2024-03-29T06:33:30;16.58;;;6.60;;
53835;SDS011;39737;43.334;21.936;2024-03-29T06:36:15;11.77;;;5.63;;
53835;SDS011;39737;43.334;21.936;2024-03-29T06:38:59;8.75;;;4.65;;
53835;SDS011;39737;43.334;21.936;2024-03-29T06:41:44;9.82;;;4.43;;
53835;SDS011;39737;43.334;21.936;2024-03-29T06:44:29;7.32;;;3.90;;
53835;SDS011;39737;43.334;21.936;2024-03-29T06:47:14;7.80;;;2.97;;
53835;SDS011;39737;43.334;21.936;2024-03-29T06:49:59;8.27;;;2.70;;
53835;SDS011;39737;43.334;21.936;2024-03-29T06:52:45;12.55;;;4.18;;
53835;SDS011;39737;43.334;21.936;2024-03-29T06:55:30;12.90;;;4.53;;
53835;SDS011;39737;43.334;21.936;2024-03-29T06:58:16;8.48;;;4.75;;
53835;SDS011;39737;43.334;21.936;2024-03-29T07:01:01;11.07;;;4.38;;
53835;SDS011;39737;43.334;21.936;2024-03-29T07:03:52;8.88;;;4.05;;
53835;SDS011;39737;43.334;21.936;2024-03-29T07:06:38;9.90;;;3.20;;
53835;SDS011;39737;43.334;21.936;2024-03-29T07:09:34;5.30;;;2.30;;
53835;SDS011;39737;43.334;21.936;2024-03-29T07:12:19;7.05;;;2.97;;
53835;SDS011;39737;43.334;21.936;2024-03-29T07:15:04;7.82;;;2.35;;
53835;SDS011;39737;43.334;21.936;2024-03-29T07:17:54;21.20;;;6.93;;
53835;SDS011;39737;43.334;21.936;2024-03-29T07:23:55;9.75;;;2.67;;
53835;SDS011;39737;43.334;21.936;2024-03-29T07:26:43;3.38;;;2.00;;
53835;SDS011;39737;43.334;21.936;2024-03-29T07:29:30;4.82;;;2.75;;
53835;SDS011;39737;43.334;21.936;2024-03-29T07:32:25;3.58;;;2.22;;
53835;SDS011;39737;43.334;21.936;2024-03-29T07:35:10;6.22;;;2.03;;
53835;SDS011;39737;43.334;21.936;2024-03-29T07:37:56;3.92;;;2.05;;
53835;SDS011;39737;43.334;21.936;2024-03-29T07:41:00;3.60;;;1.30;;
53835;SDS011;39737;43.334;21.936;2024-03-29T07:43:56;3.75;;;1.30;;
53835;SDS011;39737;43.334;21.936;2024-03-29T07:46:48;4.53;;;1.85;;
53835;SDS011;39737;43.334;21.936;2024-03-29T07:49:39;3.22;;;1.63;;
53835;SDS011;39737;43.334;21.936;2024-03-29T07:52:50;4.30;;;1.10;;
53835;SDS011;39737;43.334;21.936;2024-03-29T07:55:54;3.10;;;1.10;;
53835;SDS011;39737;43.334;21.936;2024-03-29T07:58:50;6.90;;;1.65;;
53835;SDS011;39737;43.334;21.936;2024-03-29T08:01:35;4.57;;;1.52;;
53835;SDS011;39737;43.334;21.936;2024-03-29T08:04:21;2.25;;;1.08;;
53835;SDS011;39737;43.334;21.936;2024-03-29T08:07:06;3.15;;;1.33;;
53835;SDS011;39737;43.334;21.936;2024-03-29T08:09:54;3.65;;;1.02;;
53835;SDS011;39737;43.334;21.936;2024-03-29T08:16:53;3.60;;;1.73;;
53835;SDS011;39737;43.334;21.936;2024-03-29T08:19:40;2.05;;;0.77;;
53835;SDS011;39737;43.334;21.936;2024-03-29T08:22:32;4.22;;;1.10;;
53835;SDS011;39737;43.334;21.936;2024-03-29T08:25:18;2.63;;;0.68;;
53835;SDS011;39737;43.334;21.936;2024-03-29T08:28:03;2.95;;;0.95;;
53835;SDS011;39737;43.334;21.936;2024-03-29T08:30:58;3.97;;;1.20;;
53835;SDS011;39737;43.334;21.936;2024-03-29T08:33:49;5.70;;;1.30;;
53835;SDS011;39737;43.334;21.936;2024-03-29T08:36:37;2.00;;;1.07;;
53835;SDS011;39737;43.334;21.936;2024-03-29T08:39:22;7.18;;;1.05;;
53835;SDS011;39737;43.334;21.936;2024-03-29T08:42:08;1.35;;;0.85;;
53835;SDS011;39737;43.334;21.936;2024-03-29T08:44:56;1.50;;;1.08;;
53835;SDS011;39737;43.334;21.936;2024-03-29T08:47:43;3.60;;;1.17;;
53835;SDS011;39737;43.334;21.936;2024-03-29T08:50:28;3.10;;;0.85;;
53835;SDS011;39737;43.334;21.936;2024-03-29T08:53:13;1.25;;;0.80;;
53835;SDS011;39737;43.334;21.936;2024-03-29T08:55:58;1.80;;;0.82;;
53835;SDS011;39737;43.334;21.936;2024-03-29T08:58:42;2.92;;;0.90;;
53835;SDS011;39737;43.334;21.936;2024-03-29T09:01:28;3.38;;;0.80;;
53835;SDS011;39737;43.334;21.936;2024-03-29T09:04:15;5.45;;;0.95;;
53835;SDS011;39737;43.334;21.936;2024-03-29T09:07:04;7.32;;;1.23;;
53835;SDS011;39737;43.334;21.936;2024-03-29T09:09:49;3.42;;;1.25;;
53835;SDS011;39737;43.334;21.936;2024-03-29T09:12:35;4.43;;;0.90;;
53835;SDS011;39737;43.334;21.936;2024-03-29T09:15:20;1.70;;;0.60;;
53835;SDS011;39737;43.334;21.936;2024-03-29T09:18:05;1.13;;;0.73;;
53835;SDS011;39737;43.334;21.936;2024-03-29T09:21:04;4.10;;;1.17;;
53835;SDS011;39737;43.334;21.936;2024-03-29T09:23:49;4.93;;;1.00;;
53835;SDS011;39737;43.334;21.936;2024-03-29T09:26:37;4.82;;;0.73;;
53835;SDS011;39737;43.334;21.936;2024-03-29T09:29:23;4.07;;;0.80;;
53835;SDS011;39737;43.334;21.936;2024-03-29T09:32:09;3.40;;;1.10;;
53835;SDS011;39737;43.334;21.936;2024-03-29T09:34:59;2.67;;;0.82;;
53835;SDS011;39737;43.334;21.936;2024-03-29T09:37:45;2.58;;;1.02;;
53835;SDS011;39737;43.334;21.936;2024-03-29T09:40:30;4.63;;;1.65;;
53835;SDS011;39737;43.334;21.936;2024-03-29T09:43:16;7.18;;;1.40;;
53835;SDS011;39737;43.334;21.936;2024-03-29T09:46:02;4.38;;;0.98;;
53835;SDS011;39737;43.334;21.936;2024-03-29T09:48:48;6.00;;;1.63;;
53835;SDS011;39737;43.334;21.936;2024-03-29T09:51:38;3.25;;;1.33;;
53835;SDS011;39737;43.334;21.936;2024-03-29T09:54:24;4.15;;;0.70;;
53835;SDS011;39737;43.334;21.936;2024-03-29T09:57:35;1.60;;;0.95;;
53835;SDS011;39737;43.334;21.936;2024-03-29T10:00:59;2.00;;;0.82;;
53835;SDS011;39737;43.334;21.936;2024-03-29T10:03:45;2.72;;;1.00;;
53835;SDS011;39737;43.334;21.936;2024-03-29T10:06:33;3.03;;;0.98;;
53835;SDS011;39737;43.334;21.936;2024-03-29T10:09:19;4.38;;;0.75;;
53835;SDS011;39737;43.334;21.936;2024-03-29T10:12:05;2.92;;;1.23;;
53835;SDS011;39737;43.334;21.936;2024-03-29T10:14:50;4.55;;;1.20;;
53835;SDS011;39737;43.334;21.936;2024-03-29T10:17:48;3.20;;;1.10;;
53835;SDS011;39737;43.334;21.936;2024-03-29T10:20:33;3.08;;;1.25;;
53835;SDS011;39737;43.334;21.936;2024-03-29T10:23:22;3.88;;;1.48;;
53835;SDS011;39737;43.334;21.936;2024-03-29T10:26:11;3.83;;;1.75;;
53835;SDS011;39737;43.334;21.936;2024-03-29T10:28:57;6.95;;;0.90;;
53835;SDS011;39737;43.334;21.936;2024-03-29T10:31:45;4.30;;;1.60;;
53835;SDS011;39737;43.334;21.936;2024-03-29T10:34:30;6.13;;;1.15;;
53835;SDS011;39737;43.334;21.936;2024-03-29T10:37:22;1.67;;;0.90;;
53835;SDS011;39737;43.334;21.936;2024-03-29T10:40:18;5.03;;;1.23;;
53835;SDS011;39737;43.334;21.936;2024-03-29T10:43:09;6.97;;;1.00;;
53835;SDS011;39737;43.334;21.936;2024-03-29T10:46:02;6.43;;;1.30;;
53835;SDS011;39737;43.334;21.936;2024-03-29T10:48:52;4.20;;;1.45;;
53835;SDS011;39737;43.334;21.936;2024-03-29T10:51:38;5.65;;;1.10;;
53835;SDS011;39737;43.334;21.936;2024-03-29T10:54:45;3.60;;;1.13;;
53835;SDS011;39737;43.334;21.936;2024-03-29T10:57:31;1.55;;;0.60;;
53835;SDS011;39737;43.334;21.936;2024-03-29T11:00:25;6.25;;;0.93;;
53835;SDS011;39737;43.334;21.936;2024-03-29T11:03:19;4.75;;;1.33;;
53835;SDS011;39737;43.334;21.936;2024-03-29T11:06:06;6.72;;;1.60;;
53835;SDS011;39737;43.334;21.936;2024-03-29T11:08:54;2.05;;;0.63;;
53835;SDS011;39737;43.334;21.936;2024-03-29T11:11:42;1.65;;;0.77;;
53835;SDS011;39737;43.334;21.936;2024-03-29T11:14:35;3.17;;;1.08;;
53835;SDS011;39737;43.334;21.936;2024-03-29T11:17:22;2.42;;;0.90;;
53835;SDS011;39737;43.334;21.936;2024-03-29T11:20:07;7.13;;;1.00;;
53835;SDS011;39737;43.334;21.936;2024-03-29T11:22:54;1.75;;;0.75;;
53835;SDS011;39737;43.334;21.936;2024-03-29T11:25:44;1.35;;;0.52;;
53835;SDS011;39737;43.334;21.936;2024-03-29T11:28:35;5.47;;;1.00;;
53835;SDS011;39737;43.334;21.936;2024-03-29T11:31:37;2.53;;;0.90;;
53835;SDS011;39737;43.334;21.936;2024-03-29T11:34:30;1.95;;;0.85;;
53835;SDS011;39737;43.334;21.936;2024-03-29T11:37:21;3.53;;;1.38;;
53835;SDS011;39737;43.334;21.936;2024-03-29T11:40:21;2.13;;;0.60;;
53835;SDS011;39737;43.334;21.936;2024-03-29T11:43:13;3.58;;;0.70;;
53835;SDS011;39737;43.334;21.936;2024-03-29T11:46:02;4.63;;;1.23;;
53835;SDS011;39737;43.334;21.936;2024-03-29T11:48:48;2.53;;;1.08;;
53835;SDS011;39737;43.334;21.936;2024-03-29T11:51:40;8.15;;;1.30;;
53835;SDS011;39737;43.334;21.936;2024-03-29T11:54:26;4.75;;;1.00;;
53835;SDS011;39737;43.334;21.936;2024-03-29T11:57:11;2.22;;;1.02;;
53835;SDS011;39737;43.334;21.936;2024-03-29T11:59:56;6.82;;;1.35;;
53835;SDS011;39737;43.334;21.936;2024-03-29T12:02:42;2.22;;;1.15;;
53835;SDS011;39737;43.334;21.936;2024-03-29T12:05:27;7.50;;;1.42;;
53835;SDS011;39737;43.334;21.936;2024-03-29T12:08:12;2.33;;;1.17;;
53835;SDS011;39737;43.334;21.936;2024-03-29T12:10:58;6.57;;;0.88;;
53835;SDS011;39737;43.334;21.936;2024-03-29T12:13:44;3.45;;;1.00;;
53835;SDS011;39737;43.334;21.936;2024-03-29T12:16:29;5.25;;;1.00;;
53835;SDS011;39737;43.334;21.936;2024-03-29T12:19:23;14.82;;;1.42;;
53835;SDS011;39737;43.334;21.936;2024-03-29T12:22:09;5.15;;;1.13;;
53835;SDS011;39737;43.334;21.936;2024-03-29T12:24:54;1.98;;;1.08;;
53835;SDS011;39737;43.334;21.936;2024-03-29T12:27:42;2.17;;;0.93;;
53835;SDS011;39737;43.334;21.936;2024-03-29T12:30:27;1.98;;;0.60;;
53835;SDS011;39737;43.334;21.936;2024-03-29T12:33:15;0.75;;;0.57;;
53835;SDS011;39737;43.334;21.936;2024-03-29T12:36:01;2.30;;;1.13;;
53835;SDS011;39737;43.334;21.936;2024-03-29T12:38:46;1.88;;;0.55;;
53835;SDS011;39737;43.334;21.936;2024-03-29T12:41:37;2.20;;;0.70;;
53835;SDS011;39737;43.334;21.936;2024-03-29T12:44:22;11.65;;;0.93;;
53835;SDS011;39737;43.334;21.936;2024-03-29T12:47:07;4.13;;;0.90;;
53835;SDS011;39737;43.334;21.936;2024-03-29T12:49:52;5.45;;;1.02;;
53835;SDS011;39737;43.334;21.936;2024-03-29T12:52:39;2.55;;;0.73;;
53835;SDS011;39737;43.334;21.936;2024-03-29T12:55:25;2.55;;;0.98;;
53835;SDS011;39737;43.334;21.936;2024-03-29T12:58:15;1.75;;;0.80;;
53835;SDS011;39737;43.334;21.936;2024-03-29T13:01:21;4.57;;;1.08;;
53835;SDS011;39737;43.334;21.936;2024-03-29T13:04:06;8.45;;;1.10;;
53835;SDS011;39737;43.334;21.936;2024-03-29T13:06:50;4.45;;;1.27;;
53835;SDS011;39737;43.334;21.936;2024-03-29T13:09:35;4.07;;;0.95;;
53835;SDS011;39737;43.334;21.936;2024-03-29T13:12:20;6.95;;;1.10;;
53835;SDS011;39737;43.334;21.936;2024-03-29T13:15:14;1.13;;;0.52;;
53835;SDS011;39737;43.334;21.936;2024-03-29T13:17:59;5.57;;;1.30;;
53835;SDS011;39737;43.334;21.936;2024-03-29T13:20:45;5.10;;;1.10;;
53835;SDS011;39737;43.334;21.936;2024-03-29T13:23:30;4.53;;;0.98;;
53835;SDS011;39737;43.334;21.936;2024-03-29T13:26:17;6.22;;;1.00;;
53835;SDS011;39737;43.334;21.936;2024-03-29T13:29:02;7.30;;;1.08;;
53835;SDS011;39737;43.334;21.936;2024-03-29T13:31:47;13.40;;;1.52;;
53835;SDS011;39737;43.334;21.936;2024-03-29T13:34:32;6.97;;;1.23;;
53835;SDS011;39737;43.334;21.936;2024-03-29T13:37:17;2.95;;;0.80;;
53835;SDS011;39737;43.334;21.936;2024-03-29T13:40:06;12.10;;;4.18;;
53835;SDS011;39737;43.334;21.936;2024-03-29T13:42:51;3.10;;;0.98;;
53835;SDS011;39737;43.334;21.936;2024-03-29T13:45:37;6.15;;;1.40;;
53835;SDS011;39737;43.334;21.936;2024-03-29T13:48:22;3.88;;;0.82;;
53835;SDS011;39737;43.334;21.936;2024-03-29T13:51:07;5.45;;;1.10;;
53835;SDS011;39737;43.334;21.936;2024-03-29T13:53:52;3.65;;;1.00;;
53835;SDS011;39737;43.334;21.936;2024-03-29T13:56:39;6.72;;;2.35;;
53835;SDS011;39737;43.334;21.936;2024-03-29T13:59:24;5.40;;;0.90;;
53835;SDS011;39737;43.334;21.936;2024-03-29T14:02:10;5.05;;;1.02;;
53835;SDS011;39737;43.334;21.936;2024-03-29T14:04:56;3.38;;;0.60;;
53835;SDS011;39737;43.334;21.936;2024-03-29T14:07:42;2.33;;;0.77;;
53835;SDS011;39737;43.334;21.936;2024-03-29T14:10:27;4.60;;;1.52;;
53835;SDS011;39737;43.334;21.936;2024-03-29T14:13:12;4.53;;;1.70;;
53835;SDS011;39737;43.334;21.936;2024-03-29T14:15:58;3.50;;;1.05;;
53835;SDS011;39737;43.334;21.936;2024-03-29T14:18:45;5.60;;;1.50;;
53835;SDS011;39737;43.334;21.936;2024-03-29T14:21:30;7.75;;;2.70;;
53835;SDS011;39737;43.334;21.936;2024-03-29T14:24:34;4.65;;;1.48;;
53835;SDS011;39737;43.334;21.936;2024-03-29T14:27:22;7.78;;;1.63;;
53835;SDS011;39737;43.334;21.936;2024-03-29T14:30:09;1.35;;;0.88;;
53835;SDS011;39737;43.334;21.936;2024-03-29T14:32:55;7.60;;;2.78;;
53835;SDS011;39737;43.334;21.936;2024-03-29T14:35:40;6.47;;;2.78;;
53835;SDS011;39737;43.334;21.936;2024-03-29T14:38:26;5.97;;;1.30;;
53835;SDS011;39737;43.334;21.936;2024-03-29T14:41:11;3.83;;;0.77;;
53835;SDS011;39737;43.334;21.936;2024-03-29T14:44:16;1.95;;;0.70;;
53835;SDS011;39737;43.334;21.936;2024-03-29T14:47:01;6.40;;;1.23;;
53835;SDS011;39737;43.334;21.936;2024-03-29T14:49:46;5.35;;;1.42;;
53835;SDS011;39737;43.334;21.936;2024-03-29T14:52:31;3.25;;;1.08;;
53835;SDS011;39737;43.334;21.936;2024-03-29T14:55:16;3.33;;;1.15;;
53835;SDS011;39737;43.334;21.936;2024-03-29T14:58:01;4.82;;;1.63;;
53835;SDS011;39737;43.334;21.936;2024-03-29T15:00:47;4.18;;;1.33;;
53835;SDS011;39737;43.334;21.936;2024-03-29T15:03:33;7.50;;;0.80;;
53835;SDS011;39737;43.334;21.936;2024-03-29T15:06:18;3.47;;;0.77;;
53835;SDS011;39737;43.334;21.936;2024-03-29T15:09:03;9.18;;;1.02;;
53835;SDS011;39737;43.334;21.936;2024-03-29T15:11:49;0.98;;;0.52;;
53835;SDS011;39737;43.334;21.936;2024-03-29T15:14:34;2.17;;;0.68;;
53835;SDS011;39737;43.334;21.936;2024-03-29T15:17:19;2.50;;;1.00;;
53835;SDS011;39737;43.334;21.936;2024-03-29T15:20:07;10.98;;;0.90;;
53835;SDS011;39737;43.334;21.936;2024-03-29T15:22:54;3.45;;;0.82;;
53835;SDS011;39737;43.334;21.936;2024-03-29T15:25:41;2.90;;;0.73;;
53835;SDS011;39737;43.334;21.936;2024-03-29T15:28:28;2.50;;;0.93;;
53835;SDS011;39737;43.334;21.936;2024-03-29T15:31:33;9.10;;;1.10;;
53835;SDS011;39737;43.334;21.936;2024-03-29T15:34:18;1.35;;;0.95;;
53835;SDS011;39737;43.334;21.936;2024-03-29T15:37:03;3.83;;;1.02;;
53835;SDS011;39737;43.334;21.936;2024-03-29T15:39:48;3.45;;;0.95;;
53835;SDS011;39737;43.334;21.936;2024-03-29T15:42:34;6.85;;;1.55;;
53835;SDS011;39737;43.334;21.936;2024-03-29T15:45:21;3.65;;;1.45;;
53835;SDS011;39737;43.334;21.936;2024-03-29T15:48:05;1.05;;;0.93;;
53835;SDS011;39737;43.334;21.936;2024-03-29T15:50:51;3.35;;;0.98;;
53835;SDS011;39737;43.334;21.936;2024-03-29T15:53:36;3.75;;;1.38;;
53835;SDS011;39737;43.334;21.936;2024-03-29T15:56:22;6.72;;;0.98;;
53835;SDS011;39737;43.334;21.936;2024-03-29T15:59:07;1.35;;;1.00;;
53835;SDS011;39737;43.334;21.936;2024-03-29T16:01:54;10.25;;;1.45;;
53835;SDS011;39737;43.334;21.936;2024-03-29T16:04:40;4.13;;;1.23;;
53835;SDS011;39737;43.334;21.936;2024-03-29T16:07:25;3.33;;;1.63;;
53835;SDS011;39737;43.334;21.936;2024-03-29T16:10:10;4.07;;;1.25;;
53835;SDS011;39737;43.334;21.936;2024-03-29T16:12:55;6.97;;;1.92;;
53835;SDS011;39737;43.334;21.936;2024-03-29T16:15:43;11.90;;;1.48;;
53835;SDS011;39737;43.334;21.936;2024-03-29T16:18:28;1.15;;;1.05;;
53835;SDS011;39737;43.334;21.936;2024-03-29T16:21:13;5.32;;;1.40;;
53835;SDS011;39737;43.334;21.936;2024-03-29T16:23:59;3.08;;;1.58;;
53835;SDS011;39737;43.334;21.936;2024-03-29T16:26:44;4.97;;;1.60;;
53835;SDS011;39737;43.334;21.936;2024-03-29T16:29:28;10.52;;;2.10;;
53835;SDS011;39737;43.334;21.936;2024-03-29T16:32:14;4.55;;;1.90;;
53835;SDS011;39737;43.334;21.936;2024-03-29T16:34:59;4.57;;;2.47;;
53835;SDS011;39737;43.334;21.936;2024-03-29T16:37:44;10.73;;;2.50;;
53835;SDS011;39737;43.334;21.936;2024-03-29T16:40:29;8.73;;;2.53;;